createdAt,value
2022-08-07T00:00:26.602Z,1.87
2022-08-07T00:02:56.057Z,1.70
2022-08-07T00:05:26.522Z,1.90
2022-08-07T00:08:00.318Z,2.10
2022-08-07T00:10:31.431Z,2.23
2022-08-07T00:13:09.939Z,2.13
2022-08-07T00:15:51.781Z,1.97
2022-08-07T00:18:24.667Z,2.00
2022-08-07T00:20:56.790Z,2.47
2022-08-07T00:23:28.290Z,1.97
2022-08-07T00:26:00.140Z,2.00
2022-08-07T00:28:33.377Z,2.10
2022-08-07T00:31:04.553Z,1.80
2022-08-07T00:33:34.887Z,1.67
2022-08-07T00:36:05.027Z,2.10
2022-08-07T00:38:34.113Z,2.20
2022-08-07T00:41:02.399Z,2.53
2022-08-07T00:44:01.217Z,2.10
2022-08-07T00:46:18.225Z,2.27
2022-08-07T00:48:49.914Z,1.80
2022-08-07T00:51:21.526Z,2.00
2022-08-07T00:53:55.336Z,2.10
2022-08-07T00:56:30.083Z,2.40
2022-08-07T00:58:58.902Z,2.20
2022-08-07T01:01:27.036Z,1.93
2022-08-07T01:04:00.368Z,2.30
2022-08-07T01:06:30.199Z,2.00
2022-08-07T01:09:01.216Z,2.17
2022-08-07T01:12:23.262Z,2.40
2022-08-07T01:14:17.975Z,2.30
2022-08-07T01:16:51.372Z,2.00
2022-08-07T01:19:20.499Z,1.97
2022-08-07T01:21:53.418Z,2.17
2022-08-07T01:24:23.780Z,2.20
2022-08-07T01:26:53.954Z,2.20
2022-08-07T01:29:23.474Z,2.30
2022-08-07T01:31:59.400Z,2.20
2022-08-07T01:34:30.846Z,2.37
2022-08-07T01:37:01.372Z,2.00
2022-08-07T01:39:41.399Z,2.40
2022-08-07T01:42:38.653Z,2.30
2022-08-07T01:45:05.097Z,2.10
2022-08-07T01:48:18.254Z,2.20
2022-08-07T01:50:28.838Z,1.77
2022-08-07T01:53:01.402Z,2.30
2022-08-07T01:55:43.690Z,2.15
2022-08-07T01:58:29.193Z,2.30
2022-08-07T02:01:25.502Z,1.97
2022-08-07T02:04:02.059Z,2.33
2022-08-07T02:06:35.512Z,1.83
2022-08-07T02:09:07.656Z,2.20
2022-08-07T02:12:04.502Z,1.80
2022-08-07T02:14:40.432Z,1.90
2022-08-07T02:17:10.949Z,2.00
2022-08-07T02:20:04.403Z,2.17
2022-08-07T02:22:31.820Z,1.80
2022-08-07T02:25:02.532Z,2.00
2022-08-07T02:27:37.096Z,2.00
2022-08-07T02:30:10.707Z,2.63
2022-08-07T02:33:00.553Z,2.30
2022-08-07T02:36:29.968Z,1.90
2022-08-07T02:38:22.771Z,2.13
2022-08-07T02:40:59.147Z,1.90
2022-08-07T02:43:29.399Z,2.10
2022-08-07T02:46:00.758Z,2.47
2022-08-07T02:48:30.341Z,2.30
2022-08-07T02:51:00.341Z,1.53
2022-08-07T02:53:38.578Z,2.13
2022-08-07T02:56:21.092Z,2.10
2022-08-07T02:58:54.279Z,1.90
2022-08-07T03:01:36.245Z,1.70
2022-08-07T03:04:07.058Z,1.90
2022-08-07T03:06:38.843Z,2.00
2022-08-07T03:09:11.125Z,1.90
2022-08-07T03:11:51.505Z,1.80
2022-08-07T03:14:22.654Z,2.00
2022-08-07T03:16:52.391Z,1.90
2022-08-07T03:19:21.294Z,1.90
2022-08-07T03:21:51.027Z,2.03
2022-08-07T03:24:27.013Z,1.93
2022-08-07T03:27:00.261Z,1.77
2022-08-07T03:29:30.548Z,1.73
2022-08-07T03:31:59.156Z,2.10
2022-08-07T03:34:28.922Z,1.93
2022-08-07T03:36:58.984Z,1.90
2022-08-07T03:39:46.190Z,1.97
2022-08-07T03:42:20.902Z,1.80
2022-08-07T03:44:53.564Z,1.80
2022-08-07T03:47:27.865Z,1.73
2022-08-07T03:49:58.397Z,1.60
2022-08-07T03:52:29.005Z,2.10
2022-08-07T03:55:06.536Z,2.00
2022-08-07T03:59:04.835Z,2.00
2022-08-07T04:00:30.263Z,2.30
2022-08-07T04:03:04.066Z,2.10
2022-08-07T04:05:40.591Z,2.30
2022-08-07T04:08:12.663Z,1.87
2022-08-07T04:10:53.893Z,2.00
2022-08-07T04:13:28.539Z,2.27
2022-08-07T04:16:16.374Z,2.03
2022-08-07T04:19:01.683Z,1.70
2022-08-07T04:21:33.585Z,1.50
2022-08-07T04:24:07.549Z,2.17
2022-08-07T04:26:36.000Z,1.80
2022-08-07T04:29:07.122Z,2.10
2022-08-07T04:32:03.141Z,1.90
2022-08-07T04:34:33.264Z,1.60
2022-08-07T04:37:01.819Z,1.70
2022-08-07T04:39:35.614Z,1.30
2022-08-07T04:42:04.153Z,1.77
2022-08-07T04:44:33.700Z,1.53
2022-08-07T04:47:08.275Z,1.70
2022-08-07T04:50:03.662Z,2.07
2022-08-07T04:52:51.106Z,1.70
2022-08-07T04:58:12.230Z,1.60
2022-08-07T04:58:34.917Z,1.57
2022-08-07T05:01:18.665Z,2.20
2022-08-07T05:04:06.760Z,2.10
2022-08-07T05:06:43.264Z,1.50
2022-08-07T05:09:43.476Z,1.80
2022-08-07T05:12:26.729Z,1.80
2022-08-07T05:15:05.054Z,1.70
2022-08-07T05:17:51.697Z,1.67
2022-08-07T05:20:26.822Z,1.67
2022-08-07T05:23:00.526Z,1.70
2022-08-07T05:25:54.476Z,1.90
2022-08-07T05:28:22.976Z,1.80
2022-08-07T05:30:56.889Z,1.70
2022-08-07T05:33:28.130Z,1.70
2022-08-07T05:35:57.281Z,1.53
2022-08-07T05:39:00.226Z,1.83
2022-08-07T05:41:17.041Z,1.50
2022-08-07T05:44:08.326Z,1.60
2022-08-07T05:46:39.290Z,1.67
2022-08-07T05:49:12.398Z,1.70
2022-08-07T05:51:42.443Z,1.67
2022-08-07T05:54:30.109Z,1.73
2022-08-07T05:56:59.809Z,1.70
2022-08-07T05:59:28.522Z,1.60
2022-08-07T06:02:08.740Z,1.60
2022-08-07T06:04:42.781Z,1.63
2022-08-07T06:07:11.585Z,1.80
2022-08-07T06:10:05.579Z,1.70
2022-08-07T06:12:35.132Z,1.50
2022-08-07T06:15:05.689Z,1.60
2022-08-07T06:17:37.417Z,1.50
2022-08-07T06:20:12.566Z,1.50
2022-08-07T06:23:24.558Z,2.00
2022-08-07T06:25:54.083Z,2.93
2022-08-07T06:28:27.728Z,1.60
2022-08-07T06:30:56.389Z,1.73
2022-08-07T06:33:26.622Z,2.30
2022-08-07T06:36:12.338Z,2.00
2022-08-07T06:38:59.495Z,2.70
2022-08-07T06:42:01.923Z,2.20
2022-08-07T06:44:26.222Z,1.57
2022-08-07T06:47:10.642Z,1.97
2022-08-07T06:49:52.518Z,1.90
2022-08-07T06:52:35.263Z,2.07
2022-08-07T06:55:31.346Z,1.80
2022-08-07T06:57:59.768Z,1.97
2022-08-07T07:00:29.101Z,1.87
2022-08-07T07:03:00.918Z,2.00
2022-08-07T07:06:02.600Z,1.83
2022-08-07T07:08:25.742Z,1.80
2022-08-07T07:10:57.460Z,1.60
2022-08-07T07:13:57.350Z,1.87
2022-08-07T07:16:27.648Z,1.83
2022-08-07T07:19:33.965Z,2.23
2022-08-07T07:22:11.716Z,1.80
2022-08-07T07:25:02.418Z,1.70
2022-08-07T07:27:56.217Z,2.00
2022-08-07T07:30:38.705Z,2.00
2022-08-07T07:33:11.349Z,1.70
2022-08-07T07:35:54.513Z,2.00
2022-08-07T07:38:31.786Z,2.00
2022-08-07T07:41:04.406Z,1.77
2022-08-07T07:44:14.881Z,2.20
2022-08-07T07:46:37.546Z,2.03
2022-08-07T07:50:36.533Z,1.60
2022-08-07T07:52:12.763Z,2.10
2022-08-07T07:54:50.744Z,2.00
2022-08-07T07:57:43.963Z,1.70
2022-08-07T08:00:15.064Z,1.83
2022-08-07T08:03:05.589Z,2.00
2022-08-07T08:05:54.207Z,2.00
2022-08-07T08:08:34.581Z,2.20
2022-08-07T08:11:07.901Z,2.10
2022-08-07T08:13:54.332Z,1.93
2022-08-07T08:16:29.950Z,2.30
2022-08-07T08:19:09.631Z,2.10
2022-08-07T08:22:07.919Z,2.10
2022-08-07T08:25:18.169Z,2.03
2022-08-07T08:27:56.603Z,1.80
2022-08-07T08:30:28.706Z,2.20
2022-08-07T08:33:01.544Z,2.40
2022-08-07T08:35:42.858Z,2.50
2022-08-07T08:38:25.797Z,2.37
2022-08-07T08:41:03.536Z,2.80
2022-08-07T08:43:42.012Z,2.10
2022-08-07T08:46:20.538Z,1.97
2022-08-07T08:48:59.206Z,2.50
2022-08-07T08:52:12.370Z,3.27
2022-08-07T08:54:25.899Z,2.20
2022-08-07T08:56:55.685Z,2.87
2022-08-07T08:59:30.353Z,2.33
2022-08-07T09:02:16.728Z,2.50
2022-08-07T09:05:21.519Z,2.50
2022-08-07T09:07:58.784Z,2.17
2022-08-07T09:10:30.185Z,2.33
2022-08-07T09:13:06.885Z,2.50
2022-08-07T09:16:23.996Z,2.30
2022-08-07T09:18:58.636Z,2.80
2022-08-07T09:22:23.218Z,2.50
2022-08-07T09:24:59.328Z,2.50
2022-08-07T09:27:31.727Z,2.03
2022-08-07T09:30:20.711Z,2.50
2022-08-07T09:33:16.611Z,2.60
2022-08-07T09:36:07.625Z,2.20
2022-08-07T09:38:49.964Z,2.30
2022-08-07T09:41:36.347Z,2.60
2022-08-07T09:44:33.062Z,2.40
2022-08-07T09:47:51.888Z,2.50
2022-08-07T09:50:19.591Z,2.40
2022-08-07T09:52:53.932Z,2.30
2022-08-07T09:55:36.937Z,2.37
2022-08-07T09:58:42.147Z,2.50
2022-08-07T10:01:53.703Z,2.17
2022-08-07T10:04:28.339Z,2.67
2022-08-07T10:07:26.314Z,2.70
2022-08-07T10:10:11.892Z,2.40
2022-08-07T10:13:06.299Z,2.70
2022-08-07T10:15:59.133Z,2.37
2022-08-07T10:18:52.776Z,2.57
2022-08-07T10:22:12.157Z,2.63
2022-08-07T10:24:39.658Z,2.50
2022-08-07T10:27:46.395Z,2.40
2022-08-07T10:30:18.765Z,3.17
2022-08-07T10:33:09.216Z,2.60
2022-08-07T10:36:05.576Z,2.80
2022-08-07T10:38:51.732Z,1.80
2022-08-07T10:41:51.486Z,2.60
2022-08-07T10:44:39.085Z,3.00
2022-08-07T10:47:16.740Z,2.90
2022-08-07T10:49:51.874Z,2.63
2022-08-07T10:52:31.695Z,2.97
2022-08-07T10:55:27.073Z,2.73
2022-08-07T10:58:13.972Z,2.40
2022-08-07T11:00:56.347Z,2.60
2022-08-07T11:03:37.787Z,2.40
2022-08-07T11:06:26.810Z,2.80
2022-08-07T11:09:02.679Z,2.37
2022-08-07T11:11:35.750Z,2.23
2022-08-07T11:14:44.159Z,2.80
2022-08-07T11:17:07.305Z,3.00
2022-08-07T11:19:43.396Z,2.40
2022-08-07T11:22:33.279Z,2.30
2022-08-07T11:25:15.204Z,2.73
2022-08-07T11:28:03.138Z,2.40
2022-08-07T11:30:42.670Z,2.50
2022-08-07T11:33:19.819Z,2.60
2022-08-07T11:36:25.213Z,2.50
2022-08-07T11:39:07.627Z,2.50
2022-08-07T11:42:00.199Z,2.60
2022-08-07T11:44:40.558Z,2.57
2022-08-07T11:47:38.914Z,2.90
2022-08-07T11:50:35.201Z,2.53
2022-08-07T11:53:21.904Z,2.90
2022-08-07T11:56:09.383Z,2.57
2022-08-07T11:59:03.703Z,2.43
2022-08-07T12:02:00.036Z,2.40
2022-08-07T12:04:58.081Z,2.10
2022-08-07T12:07:39.104Z,2.97
2022-08-07T12:10:15.390Z,2.63
2022-08-07T12:12:47.767Z,2.50
2022-08-07T12:15:35.778Z,2.80
2022-08-07T12:18:22.102Z,2.40
2022-08-07T12:21:06.549Z,2.87
2022-08-07T12:24:07.053Z,2.67
2022-08-07T12:26:47.036Z,2.53
2022-08-07T12:29:38.491Z,2.97
2022-08-07T12:32:16.694Z,2.63
2022-08-07T12:34:49.181Z,3.30
2022-08-07T12:37:28.602Z,2.80
2022-08-07T12:40:44.123Z,2.40
2022-08-07T12:43:09.399Z,2.90
2022-08-07T12:45:44.437Z,3.00
2022-08-07T12:48:41.562Z,3.10
2022-08-07T12:51:20.589Z,2.83
2022-08-07T12:54:36.496Z,3.00
2022-08-07T12:56:51.534Z,2.80
2022-08-07T12:59:33.313Z,3.00
2022-08-07T13:02:33.505Z,3.20
2022-08-07T13:06:01.746Z,2.77
2022-08-07T13:08:18.809Z,3.00
2022-08-07T13:11:00.316Z,2.73
2022-08-07T13:13:48.669Z,2.67
2022-08-07T13:16:28.078Z,2.70
2022-08-07T13:19:18.092Z,3.30
2022-08-07T13:22:02.034Z,3.07
2022-08-07T13:24:52.201Z,2.50
2022-08-07T13:28:05.855Z,3.07
2022-08-07T13:30:18.967Z,2.80
2022-08-07T13:32:54.356Z,3.43
2022-08-07T13:36:00.867Z,3.07
2022-08-07T13:38:22.581Z,2.70
2022-08-07T13:41:02.205Z,3.30
2022-08-07T13:43:34.219Z,2.30
2022-08-07T13:46:10.949Z,2.83
2022-08-07T13:48:58.516Z,2.60
2022-08-07T13:52:22.300Z,2.80
2022-08-07T13:54:23.499Z,2.33
2022-08-07T13:56:59.922Z,2.90
2022-08-07T13:59:32.102Z,3.07
2022-08-07T14:02:08.373Z,2.50
2022-08-07T14:04:49.328Z,2.77
2022-08-07T14:07:22.928Z,2.60
2022-08-07T14:10:02.407Z,2.60
2022-08-07T14:12:55.050Z,2.80
2022-08-07T14:15:35.094Z,2.37
2022-08-07T14:18:27.258Z,2.30
2022-08-07T14:21:08.058Z,2.50
2022-08-07T14:24:00.943Z,2.53
2022-08-07T14:26:39.033Z,2.70
2022-08-07T14:30:05.871Z,2.60
2022-08-07T14:32:03.178Z,2.17
2022-08-07T14:34:34.844Z,2.30
2022-08-07T14:37:17.953Z,2.90
2022-08-07T14:40:16.665Z,2.53
2022-08-07T14:43:01.443Z,2.53
2022-08-07T14:48:21.024Z,2.30
2022-08-07T14:50:53.215Z,2.53
2022-08-07T14:56:14.053Z,2.23
2022-08-07T14:58:53.948Z,2.70
2022-08-07T15:01:28.547Z,2.60
2022-08-07T15:04:12.406Z,2.40
2022-08-07T15:09:59.209Z,2.73
2022-08-07T15:13:06.638Z,2.30
2022-08-07T15:15:22.498Z,2.60
2022-08-07T15:17:56.748Z,2.30
2022-08-07T15:20:33.238Z,2.37
2022-08-07T15:23:17.080Z,2.80
2022-08-07T15:25:56.654Z,2.13
2022-08-07T15:31:57.810Z,2.63
2022-08-07T15:34:15.001Z,2.50
2022-08-07T15:37:03.093Z,2.10
2022-08-07T15:42:49.597Z,2.00
2022-08-07T15:48:25.827Z,1.93
2022-08-07T15:51:07.809Z,2.30
2022-08-07T15:53:52.194Z,2.00
2022-08-07T15:56:33.167Z,2.10
2022-08-07T15:59:05.666Z,2.50
2022-08-07T16:01:39.299Z,2.20
2022-08-07T16:04:14.588Z,1.90
2022-08-07T16:06:49.898Z,2.10
2022-08-07T16:09:24.050Z,2.20
2022-08-07T16:12:37.905Z,1.93
2022-08-07T16:15:57.784Z,1.93
2022-08-07T16:18:49.353Z,2.00
2022-08-07T16:22:01.606Z,2.30
2022-08-07T16:24:33.813Z,1.90
2022-08-07T16:27:17.967Z,1.80
2022-08-07T16:30:31.853Z,1.80
2022-08-07T16:34:01.771Z,2.07
2022-08-07T16:36:23.011Z,2.10
2022-08-07T16:39:21.849Z,1.90
2022-08-07T16:42:36.619Z,1.60
2022-08-07T16:46:21.389Z,1.70
2022-08-07T16:48:37.691Z,1.50
2022-08-07T16:52:01.722Z,1.60
2022-08-07T16:54:34.532Z,2.50
2022-08-07T16:58:00.842Z,1.90
2022-08-07T17:00:29.908Z,1.93
2022-08-07T17:03:19.606Z,2.30
2022-08-07T17:06:30.151Z,2.17
2022-08-07T17:09:13.909Z,2.37
2022-08-07T17:12:01.450Z,2.60
2022-08-07T17:14:42.767Z,2.63
2022-08-07T17:17:44.061Z,1.60
2022-08-07T17:20:29.946Z,1.80
2022-08-07T17:23:03.901Z,1.60
2022-08-07T17:25:52.807Z,1.70
2022-08-07T17:28:31.318Z,1.50
2022-08-07T17:31:16.167Z,1.87
2022-08-07T17:34:17.938Z,2.00
2022-08-07T17:36:57.813Z,1.67
2022-08-07T17:39:57.728Z,1.50
2022-08-07T17:42:59.483Z,2.40
2022-08-07T17:45:31.652Z,1.77
2022-08-07T17:48:10.432Z,1.80
2022-08-07T17:51:01.754Z,1.70
2022-08-07T17:54:00.852Z,1.60
2022-08-07T17:56:31.805Z,1.70
2022-08-07T17:59:06.699Z,1.80
2022-08-07T18:01:45.513Z,1.90
2022-08-07T18:04:30.753Z,1.60
2022-08-07T18:07:20.424Z,1.87
2022-08-07T18:10:06.161Z,1.33
2022-08-07T18:12:49.446Z,1.83
2022-08-07T18:15:23.789Z,1.57
2022-08-07T18:18:46.178Z,1.40
2022-08-07T18:21:37.132Z,1.70
2022-08-07T18:24:01.650Z,1.70
2022-08-07T18:27:09.404Z,1.60
2022-08-07T18:30:06.172Z,1.50
2022-08-07T18:32:54.936Z,1.30
2022-08-07T18:35:51.700Z,1.70
2022-08-07T18:38:56.220Z,1.33
2022-08-07T18:41:44.708Z,1.60
2022-08-07T18:44:30.261Z,1.57
2022-08-07T18:47:06.175Z,1.47
2022-08-07T18:50:30.812Z,1.40
2022-08-07T18:52:53.756Z,1.50
2022-08-07T18:55:43.096Z,1.50
2022-08-07T18:58:51.767Z,1.60
2022-08-07T19:02:17.943Z,1.70
2022-08-07T19:04:37.935Z,1.33
2022-08-07T19:07:34.795Z,1.50
2022-08-07T19:10:10.958Z,1.50
2022-08-07T19:12:59.567Z,1.40
2022-08-07T19:16:04.666Z,1.67
2022-08-07T19:18:45.074Z,2.03
2022-08-07T19:21:46.567Z,2.00
2022-08-07T19:24:30.527Z,1.57
2022-08-07T19:28:56.539Z,1.67
2022-08-07T19:30:58.673Z,1.53
2022-08-07T19:32:51.277Z,1.60
2022-08-07T19:35:22.323Z,1.90
2022-08-07T19:37:58.178Z,1.50
2022-08-07T19:40:31.407Z,1.50
2022-08-07T19:43:02.608Z,1.80
2022-08-07T19:46:08.123Z,1.60
2022-08-07T19:48:43.586Z,1.70
2022-08-07T19:51:19.512Z,1.70
2022-08-07T19:54:31.046Z,1.70
2022-08-07T19:58:01.572Z,1.77
2022-08-07T19:59:41.279Z,1.80
2022-08-07T20:02:19.026Z,1.60
2022-08-07T20:04:56.134Z,1.90
2022-08-07T20:07:47.089Z,1.60
2022-08-07T20:10:35.583Z,1.80
2022-08-07T20:13:22.836Z,1.80
2022-08-07T20:15:54.037Z,2.43
2022-08-07T20:18:32.382Z,2.00
2022-08-07T20:21:14.856Z,2.20
2022-08-07T20:23:57.997Z,1.70
2022-08-07T20:26:32.671Z,1.83
2022-08-07T20:29:17.067Z,1.87
2022-08-07T20:32:06.166Z,1.97
2022-08-07T20:34:50.887Z,2.57
2022-08-07T20:37:25.038Z,2.03
2022-08-07T20:40:03.823Z,1.93
2022-08-07T20:42:34.451Z,2.20
2022-08-07T20:45:33.281Z,2.30
2022-08-07T20:47:58.670Z,2.10
2022-08-07T20:50:29.060Z,1.97
2022-08-07T20:53:00.209Z,2.20
2022-08-07T20:55:32.271Z,2.10
2022-08-07T20:58:19.160Z,2.37
2022-08-07T21:00:57.712Z,2.33
2022-08-07T21:03:27.566Z,2.37
2022-08-07T21:06:00.751Z,2.30
2022-08-07T21:08:36.562Z,2.67
2022-08-07T21:11:10.415Z,2.57
2022-08-07T21:14:20.147Z,2.60
2022-08-07T21:16:56.140Z,2.57
2022-08-07T21:19:32.139Z,2.60
2022-08-07T21:22:19.318Z,3.07
2022-08-07T21:25:12.208Z,3.20
2022-08-07T21:27:53.665Z,2.60
2022-08-07T21:30:29.900Z,3.13
2022-08-07T21:33:07.664Z,3.30
2022-08-07T21:36:05.321Z,2.77
2022-08-07T21:38:32.831Z,2.97
2022-08-07T21:41:10.841Z,3.03
2022-08-07T21:43:55.907Z,3.37
2022-08-07T21:46:32.973Z,3.10
2022-08-07T21:49:14.472Z,3.23
2022-08-07T21:51:54.813Z,3.43
2022-08-07T21:54:30.505Z,3.40
2022-08-07T21:57:30.959Z,3.40
2022-08-07T22:00:08.704Z,2.93
2022-08-07T22:02:44.302Z,3.10
2022-08-07T22:05:43.952Z,3.37
2022-08-07T22:08:06.605Z,3.27
2022-08-07T22:10:42.292Z,3.63
2022-08-07T22:13:15.815Z,3.10
2022-08-07T22:16:38.840Z,3.70
2022-08-07T22:18:43.252Z,3.60
2022-08-07T22:21:17.310Z,3.40
2022-08-07T22:23:54.040Z,3.10
2022-08-07T22:26:27.780Z,3.77
2022-08-07T22:29:08.875Z,3.23
2022-08-07T22:32:00.259Z,3.53
2022-08-07T22:34:53.752Z,3.53
2022-08-07T22:38:03.525Z,3.37
2022-08-07T22:40:28.305Z,3.63
2022-08-07T22:43:02.027Z,3.80
2022-08-07T22:46:40.701Z,3.43
2022-08-07T22:49:02.408Z,3.70
2022-08-07T22:52:00.940Z,3.20
2022-08-07T22:54:49.280Z,3.67
2022-08-07T22:57:41.926Z,3.03
2022-08-07T23:00:17.569Z,3.97
2022-08-07T23:03:09.349Z,3.70
2022-08-07T23:06:09.870Z,3.60
2022-08-07T23:08:51.528Z,3.53
2022-08-07T23:11:44.249Z,3.73
2022-08-07T23:14:30.928Z,3.40
2022-08-07T23:17:20.198Z,3.63
2022-08-07T23:20:14.817Z,3.80
2022-08-07T23:23:01.207Z,3.67
2022-08-07T23:25:42.543Z,3.63
2022-08-07T23:28:28.982Z,3.43
2022-08-07T23:31:18.762Z,3.43
2022-08-07T23:34:35.499Z,4.07
2022-08-07T23:37:31.758Z,3.70
2022-08-07T23:40:11.159Z,3.20
2022-08-07T23:42:55.888Z,3.10
2022-08-07T23:46:01.693Z,3.50
2022-08-07T23:48:36.845Z,3.53
2022-08-07T23:52:53.419Z,3.40
2022-08-07T23:54:11.536Z,3.00
2022-08-07T23:56:53.796Z,3.20
